createdAt,value
2023-04-14T00:03:36.092Z,68.14
2023-04-14T00:13:40.398Z,68.20
2023-04-14T00:23:43.988Z,68.54
2023-04-14T00:33:49.558Z,68.99
2023-04-14T00:43:56.650Z,69.72
2023-04-14T00:54:02.768Z,69.02
2023-04-14T01:04:07.371Z,69.81
2023-04-14T01:15:31.640Z,70.46
2023-04-14T01:26:18.857Z,70.82
2023-04-14T01:36:37.954Z,71.11
2023-04-14T01:46:46.623Z,71.52
2023-04-14T01:56:53.852Z,71.83
2023-04-14T02:07:05.393Z,71.16
2023-04-14T02:17:13.819Z,70.48
2023-04-14T02:27:46.535Z,70.72
2023-04-14T02:37:57.612Z,70.71
2023-04-14T02:48:07.539Z,70.55
2023-04-14T02:58:12.147Z,70.34
2023-04-14T03:08:20.589Z,70.21
2023-04-14T03:18:31.541Z,70.27
2023-04-14T03:28:38.039Z,70.16
2023-04-14T03:38:45.905Z,70.31
2023-04-14T03:48:56.777Z,69.86
2023-04-14T03:59:03.017Z,69.40
2023-04-14T04:09:14.650Z,68.92
2023-04-14T04:19:23.546Z,68.64
2023-04-14T04:29:27.590Z,68.36
2023-04-14T04:39:31.487Z,68.17
2023-04-14T04:49:44.366Z,68.04
2023-04-14T04:59:49.312Z,68.23
2023-04-14T05:09:53.498Z,68.20
2023-04-14T05:19:59.171Z,68.05
2023-04-14T05:30:03.951Z,68.14
2023-04-14T05:40:08.360Z,67.53
2023-04-14T05:50:12.242Z,66.62
2023-04-14T06:00:18.284Z,65.67
2023-04-14T06:10:21.835Z,65.07
2023-04-14T06:20:27.838Z,65.09
2023-04-14T06:30:32.578Z,64.75
2023-04-14T06:40:38.230Z,65.03
2023-04-14T06:50:45.608Z,64.88
2023-04-14T07:00:49.190Z,64.61
2023-04-14T07:10:59.967Z,64.29
2023-04-14T07:21:05.493Z,64.11
2023-04-14T07:31:11.022Z,63.18
2023-04-14T07:41:14.942Z,62.10
2023-04-14T07:51:22.125Z,61.58
2023-04-14T08:01:25.898Z,61.33
2023-04-14T08:11:32.268Z,61.15
2023-04-14T08:21:35.908Z,61.01
2023-04-14T08:31:39.470Z,61.43
2023-04-14T08:41:45.143Z,60.33
2023-04-14T08:51:52.206Z,60.34
2023-04-14T09:01:56.649Z,60.37
2023-04-14T09:12:04.500Z,59.90
2023-04-14T09:22:08.203Z,59.25
2023-04-14T09:32:12.962Z,58.28
2023-04-14T09:42:20.294Z,57.18
2023-04-14T09:52:38.823Z,55.47
2023-04-14T10:03:01.927Z,54.27
2023-04-14T10:13:09.221Z,53.14
2023-04-14T10:23:13.318Z,52.10
2023-04-14T10:33:17.089Z,50.88
2023-04-14T10:43:29.627Z,49.73
2023-04-14T10:53:46.651Z,48.12
2023-04-14T11:03:51.231Z,48.12
2023-04-14T11:14:11.858Z,48.05
2023-04-14T11:24:15.891Z,48.67
2023-04-14T11:34:26.092Z,50.87
2023-04-14T11:44:32.627Z,51.40
2023-04-14T11:54:40.006Z,50.84
2023-04-14T12:04:51.123Z,50.19
2023-04-14T12:14:56.377Z,50.07
2023-04-14T12:25:13.552Z,49.14
2023-04-14T12:35:24.808Z,48.62
2023-04-14T12:45:43.929Z,48.05
2023-04-14T12:56:16.578Z,47.07
2023-04-14T13:06:22.945Z,46.64
2023-04-14T13:16:29.719Z,47.35
2023-04-14T13:26:34.278Z,47.44
2023-04-14T13:36:39.208Z,47.68
2023-04-14T13:46:45.906Z,47.71
2023-04-14T13:56:51.499Z,48.50
2023-04-14T14:06:56.933Z,48.62
2023-04-14T14:17:02.534Z,48.58
2023-04-14T14:27:06.816Z,48.30
2023-04-14T14:37:10.414Z,48.41
2023-04-14T14:47:14.037Z,48.57
2023-04-14T14:57:19.819Z,48.27
2023-04-14T15:07:23.375Z,48.45
2023-04-14T15:17:30.412Z,49.55
2023-04-14T15:27:34.072Z,50.88
2023-04-14T15:37:37.773Z,51.35
2023-04-14T15:47:41.298Z,51.70
2023-04-14T15:57:45.015Z,51.20
2023-04-14T16:07:49.002Z,51.42
2023-04-14T16:17:52.686Z,51.66
2023-04-14T16:27:57.565Z,52.16
2023-04-14T16:38:03.399Z,52.56
2023-04-14T16:48:07.466Z,52.97
2023-04-14T16:58:13.609Z,53.04
2023-04-14T17:08:21.694Z,52.81
2023-04-14T17:18:25.206Z,53.30
2023-04-14T17:28:29.031Z,53.55
2023-04-14T17:38:35.259Z,53.97
2023-04-14T17:48:39.639Z,54.19
2023-04-14T17:58:47.071Z,54.44
2023-04-14T18:08:50.778Z,54.50
2023-04-14T18:18:55.210Z,54.43
2023-04-14T18:29:00.469Z,54.21
2023-04-14T18:39:07.257Z,54.21
2023-04-14T18:49:12.569Z,54.53
2023-04-14T18:59:18.767Z,54.83
2023-04-14T19:09:25.419Z,54.84
2023-04-14T19:19:29.944Z,54.50
2023-04-14T19:29:35.879Z,54.49
2023-04-14T19:39:40.718Z,54.47
2023-04-14T19:49:48.173Z,54.78
2023-04-14T19:59:53.522Z,54.87
2023-04-14T20:09:57.640Z,55.23
2023-04-14T20:20:06.962Z,55.64
2023-04-14T20:30:13.270Z,55.77
2023-04-14T20:40:19.300Z,55.96
2023-04-14T20:50:22.926Z,56.06
2023-04-14T21:00:26.840Z,56.20
2023-04-14T21:10:30.584Z,56.19
2023-04-14T21:20:36.023Z,56.27
2023-04-14T21:30:39.581Z,56.27
2023-04-14T21:40:45.195Z,56.46
2023-04-14T21:50:49.480Z,56.61
2023-04-14T22:00:55.086Z,56.79
2023-04-14T22:11:00.494Z,56.75
2023-04-14T22:21:04.977Z,57.02
2023-04-14T22:31:10.422Z,56.90
2023-04-14T22:41:18.532Z,56.95
2023-04-14T22:51:22.497Z,57.19
2023-04-14T23:01:31.564Z,57.13
2023-04-14T23:11:35.162Z,57.54
2023-04-14T23:21:42.336Z,58.01
2023-04-14T23:31:46.333Z,57.89
2023-04-14T23:41:52.981Z,58.18
2023-04-14T23:51:57.079Z,58.34
